Nearby METAR Reports

 

KLWM - Lawrence,MA, USA
Distance from station: NE 12mi, 19km
Updated: Thu, 27-Apr-2017 7:54am EDT
Mist, Overcast
Mist, Overcast
 Wind from ENE
Wind: ENE 6 mph , 9 km/h
Temperature: 54°F , 12°C
Dew Point: 54°F , 12°C
Humidity: 100%
Barometer: 29.92 inHg , 1013.2 hPa
Summary: Mist
Clouds: Overcast
Visibility: 1 mile , 2 km
Cloud details: Overcast 300 ft
2017/04/27 11:54 KLWM 271154Z 06005KT 1SM BR OVC003 12/12 A2992 RMK AO2 SLP132 70011 T01220117 10122 20111 51013
KBED - Bedford,MA, USA
Distance from station: SSE 12mi, 19km
Updated: Thu, 27-Apr-2017 8:36am EDT
Mist, Overcast
Mist, Overcast
 
Temperature: 54°F , 12°C
Dew Point: 50°F , 10°C
Humidity: 88%
Barometer: 29.92 inHg , 1013.2 hPa
Summary: Mist
Clouds: Overcast
Visibility: 5 miles , 8 km
Cloud details: Overcast 400 ft
2017/04/27 12:36 KBED 271236Z 5SM BR OVC004 12/10 A2992 RMK AO2 T01170100

Metar display script from Saratoga-Weather.org